sensor_id;sensor_type;location;lat;lon;timestamp;pressure;altitude;pressure_sealevel;temperature;humidity
46782;BME280;32541;46.298;11.506;2023-07-29T00:02:11;89562.56;;;15.67;95.80
46782;BME280;32541;46.298;11.506;2023-07-29T00:04:36;89567.06;;;15.74;95.46
46782;BME280;32541;46.298;11.506;2023-07-29T00:07:02;89566.66;;;15.80;95.37
46782;BME280;32541;46.298;11.506;2023-07-29T00:09:27;89566.66;;;15.80;95.77
46782;BME280;32541;46.298;11.506;2023-07-29T00:11:53;89573.75;;;15.83;95.56
46782;BME280;32541;46.298;11.506;2023-07-29T00:14:18;89567.84;;;15.88;94.64
46782;BME280;32541;46.298;11.506;2023-07-29T00:16:43;89573.31;;;16.00;93.90
46782;BME280;32541;46.298;11.506;2023-07-29T00:19:09;89567.94;;;16.04;91.94
46782;BME280;32541;46.298;11.506;2023-07-29T00:21:34;89568.63;;;15.77;92.53
46782;BME280;32541;46.298;11.506;2023-07-29T00:23:59;89566.97;;;15.72;92.91
46782;BME280;32541;46.298;11.506;2023-07-29T00:26:26;89581.47;;;15.71;93.63
46782;BME280;32541;46.298;11.506;2023-07-29T00:28:54;89566.31;;;15.60;93.93
46782;BME280;32541;46.298;11.506;2023-07-29T00:31:20;89569.81;;;15.61;94.21
46782;BME280;32541;46.298;11.506;2023-07-29T00:33:45;89575.25;;;15.59;93.99
46782;BME280;32541;46.298;11.506;2023-07-29T00:36:10;89571.25;;;15.62;93.65
46782;BME280;32541;46.298;11.506;2023-07-29T00:38:36;89578.97;;;15.63;93.46
46782;BME280;32541;46.298;11.506;2023-07-29T00:41:05;89577.47;;;15.74;92.53
46782;BME280;32541;46.298;11.506;2023-07-29T00:43:31;89569.72;;;15.59;93.74
46782;BME280;32541;46.298;11.506;2023-07-29T00:45:56;89577.50;;;15.62;93.82
46782;BME280;32541;46.298;11.506;2023-07-29T00:48:23;89581.22;;;15.67;93.40
46782;BME280;32541;46.298;11.506;2023-07-29T00:50:49;89572.28;;;15.68;93.30
46782;BME280;32541;46.298;11.506;2023-07-29T00:53:14;89564.16;;;15.59;92.67
46782;BME280;32541;46.298;11.506;2023-07-29T00:55:40;89570.63;;;15.63;91.73
46782;BME280;32541;46.298;11.506;2023-07-29T00:58:07;89568.16;;;15.55;91.03
46782;BME280;32541;46.298;11.506;2023-07-29T01:00:32;89560.69;;;15.58;90.83
46782;BME280;32541;46.298;11.506;2023-07-29T01:02:57;89554.41;;;15.57;90.86
46782;BME280;32541;46.298;11.506;2023-07-29T01:05:27;89558.00;;;15.60;91.75
46782;BME280;32541;46.298;11.506;2023-07-29T01:10:54;89548.31;;;15.47;93.47
46782;BME280;32541;46.298;11.506;2023-07-29T01:13:33;89540.66;;;15.34;93.68
46782;BME280;32541;46.298;11.506;2023-07-29T01:16:17;89542.88;;;15.24;94.54
46782;BME280;32541;46.298;11.506;2023-07-29T01:18:45;89548.19;;;15.20;93.06
46782;BME280;32541;46.298;11.506;2023-07-29T01:21:13;89542.69;;;15.09;94.48
46782;BME280;32541;46.298;11.506;2023-07-29T01:23:39;89536.22;;;15.04;94.73
46782;BME280;32541;46.298;11.506;2023-07-29T01:26:05;89534.78;;;15.03;94.72
46782;BME280;32541;46.298;11.506;2023-07-29T01:28:30;89536.47;;;15.08;94.29
46782;BME280;32541;46.298;11.506;2023-07-29T01:31:05;89528.91;;;14.97;92.29
46782;BME280;32541;46.298;11.506;2023-07-29T01:33:58;89538.31;;;14.92;93.19
46782;BME280;32541;46.298;11.506;2023-07-29T01:36:28;89529.34;;;14.80;95.17
46782;BME280;32541;46.298;11.506;2023-07-29T01:38:56;89536.31;;;14.81;95.37
46782;BME280;32541;46.298;11.506;2023-07-29T01:41:23;89529.44;;;14.82;95.13
46782;BME280;32541;46.298;11.506;2023-07-29T01:43:49;89534.28;;;14.81;94.93
46782;BME280;32541;46.298;11.506;2023-07-29T01:46:15;89531.56;;;14.70;94.41
46782;BME280;32541;46.298;11.506;2023-07-29T01:48:41;89529.75;;;14.63;94.08
46782;BME280;32541;46.298;11.506;2023-07-29T01:51:07;89534.72;;;14.53;95.03
46782;BME280;32541;46.298;11.506;2023-07-29T01:53:33;89547.72;;;14.38;94.08
46782;BME280;32541;46.298;11.506;2023-07-29T01:55:58;89541.00;;;14.41;93.91
46782;BME280;32541;46.298;11.506;2023-07-29T01:58:24;89544.84;;;14.36;93.20
46782;BME280;32541;46.298;11.506;2023-07-29T02:00:50;89548.69;;;14.43;92.99
46782;BME280;32541;46.298;11.506;2023-07-29T02:03:15;89547.50;;;14.46;92.83
46782;BME280;32541;46.298;11.506;2023-07-29T02:05:41;89543.88;;;14.43;93.53
46782;BME280;32541;46.298;11.506;2023-07-29T02:08:10;89535.47;;;14.30;94.77
46782;BME280;32541;46.298;11.506;2023-07-29T02:10:35;89548.22;;;14.23;94.88
46782;BME280;32541;46.298;11.506;2023-07-29T02:13:01;89540.38;;;14.20;94.67
46782;BME280;32541;46.298;11.506;2023-07-29T02:15:27;89546.06;;;14.22;93.79
46782;BME280;32541;46.298;11.506;2023-07-29T02:17:53;89550.03;;;14.19;95.13
46782;BME280;32541;46.298;11.506;2023-07-29T02:20:18;89551.34;;;14.18;95.49
46782;BME280;32541;46.298;11.506;2023-07-29T02:22:43;89555.19;;;14.24;94.97
46782;BME280;32541;46.298;11.506;2023-07-29T02:25:09;89559.06;;;14.19;95.04
46782;BME280;32541;46.298;11.506;2023-07-29T02:27:35;89560.47;;;14.09;95.51
46782;BME280;32541;46.298;11.506;2023-07-29T02:30:00;89572.53;;;14.13;95.43
46782;BME280;32541;46.298;11.506;2023-07-29T02:32:26;89577.81;;;14.09;95.96
46782;BME280;32541;46.298;11.506;2023-07-29T02:34:51;89578.53;;;14.10;95.74
46782;BME280;32541;46.298;11.506;2023-07-29T02:37:16;89576.97;;;14.18;96.03
46782;BME280;32541;46.298;11.506;2023-07-29T02:39:42;89582.84;;;14.24;96.09
46782;BME280;32541;46.298;11.506;2023-07-29T02:42:07;89597.88;;;14.21;96.97
46782;BME280;32541;46.298;11.506;2023-07-29T02:44:33;89595.13;;;14.10;96.66
46782;BME280;32541;46.298;11.506;2023-07-29T02:46:58;89586.81;;;14.10;97.38
46782;BME280;32541;46.298;11.506;2023-07-29T02:49:23;89585.97;;;13.96;97.32
46782;BME280;32541;46.298;11.506;2023-07-29T02:51:49;89583.69;;;13.92;98.17
46782;BME280;32541;46.298;11.506;2023-07-29T02:54:14;89593.31;;;13.91;98.05
46782;BME280;32541;46.298;11.506;2023-07-29T02:56:39;89585.00;;;13.91;97.04
46782;BME280;32541;46.298;11.506;2023-07-29T02:59:05;89582.34;;;13.93;97.14
46782;BME280;32541;46.298;11.506;2023-07-29T03:01:31;89582.97;;;14.03;96.31
46782;BME280;32541;46.298;11.506;2023-07-29T03:03:56;89580.31;;;13.93;96.71
46782;BME280;32541;46.298;11.506;2023-07-29T03:06:21;89573.47;;;13.95;96.96
46782;BME280;32541;46.298;11.506;2023-07-29T03:08:47;89568.41;;;13.91;96.32
46782;BME280;32541;46.298;11.506;2023-07-29T03:11:14;89575.16;;;13.88;96.19
46782;BME280;32541;46.298;11.506;2023-07-29T03:13:40;89574.31;;;13.74;96.91
46782;BME280;32541;46.298;11.506;2023-07-29T03:16:10;89565.66;;;13.79;96.32
46782;BME280;32541;46.298;11.506;2023-07-29T03:18:35;89563.97;;;13.86;96.27
46782;BME280;32541;46.298;11.506;2023-07-29T03:21:02;89568.06;;;13.85;95.46
46782;BME280;32541;46.298;11.506;2023-07-29T03:23:29;89574.41;;;13.76;95.11
46782;BME280;32541;46.298;11.506;2023-07-29T03:25:55;89573.19;;;13.56;96.69
46782;BME280;32541;46.298;11.506;2023-07-29T03:28:32;89565.25;;;13.50;97.27
46782;BME280;32541;46.298;11.506;2023-07-29T03:30:58;89562.25;;;13.58;97.21
46782;BME280;32541;46.298;11.506;2023-07-29T03:33:25;89563.81;;;13.61;96.50
46782;BME280;32541;46.298;11.506;2023-07-29T03:35:50;89567.44;;;13.63;96.52
46782;BME280;32541;46.298;11.506;2023-07-29T03:38:16;89569.81;;;13.57;97.15
46782;BME280;32541;46.298;11.506;2023-07-29T03:40:42;89580.19;;;13.57;97.35
46782;BME280;32541;46.298;11.506;2023-07-29T03:43:07;89575.50;;;13.59;99.28
46782;BME280;32541;46.298;11.506;2023-07-29T03:45:34;89566.84;;;13.65;98.29
46782;BME280;32541;46.298;11.506;2023-07-29T03:48:00;89570.19;;;13.75;97.54
46782;BME280;32541;46.298;11.506;2023-07-29T03:50:25;89571.28;;;13.58;98.13
46782;BME280;32541;46.298;11.506;2023-07-29T03:52:51;89571.06;;;13.66;97.39
46782;BME280;32541;46.298;11.506;2023-07-29T03:55:16;89567.69;;;13.56;97.36
46782;BME280;32541;46.298;11.506;2023-07-29T03:57:42;89570.81;;;13.62;97.99
46782;BME280;32541;46.298;11.506;2023-07-29T04:00:07;89576.69;;;13.68;97.48
46782;BME280;32541;46.298;11.506;2023-07-29T04:02:34;89578.97;;;13.60;98.81
46782;BME280;32541;46.298;11.506;2023-07-29T04:05:03;89585.56;;;13.55;99.08
46782;BME280;32541;46.298;11.506;2023-07-29T04:07:28;89585.81;;;13.59;99.19
46782;BME280;32541;46.298;11.506;2023-07-29T04:09:53;89589.31;;;13.71;98.18
46782;BME280;32541;46.298;11.506;2023-07-29T04:12:19;89596.03;;;13.68;97.91
46782;BME280;32541;46.298;11.506;2023-07-29T04:14:46;89587.75;;;13.68;97.90
46782;BME280;32541;46.298;11.506;2023-07-29T04:17:12;89583.91;;;13.61;98.00
46782;BME280;32541;46.298;11.506;2023-07-29T04:19:37;89582.59;;;13.62;98.25
46782;BME280;32541;46.298;11.506;2023-07-29T04:22:03;89588.94;;;13.65;98.11
46782;BME280;32541;46.298;11.506;2023-07-29T04:24:28;89589.31;;;13.59;98.23
46782;BME280;32541;46.298;11.506;2023-07-29T04:26:53;89587.88;;;13.70;97.45
46782;BME280;32541;46.298;11.506;2023-07-29T04:29:19;89587.63;;;13.66;97.30
46782;BME280;32541;46.298;11.506;2023-07-29T04:31:44;89593.63;;;13.62;97.51
46782;BME280;32541;46.298;11.506;2023-07-29T04:34:10;89597.34;;;13.67;97.41
46782;BME280;32541;46.298;11.506;2023-07-29T04:36:35;89600.75;;;13.88;96.11
46782;BME280;32541;46.298;11.506;2023-07-29T04:39:00;89598.44;;;13.73;96.82
46782;BME280;32541;46.298;11.506;2023-07-29T04:41:26;89606.00;;;13.73;97.03
46782;BME280;32541;46.298;11.506;2023-07-29T04:43:51;89611.88;;;13.56;98.67
46782;BME280;32541;46.298;11.506;2023-07-29T04:46:17;89610.94;;;13.63;98.16
46782;BME280;32541;46.298;11.506;2023-07-29T04:48:43;89609.50;;;13.73;98.02
46782;BME280;32541;46.298;11.506;2023-07-29T04:51:08;89603.97;;;13.73;98.09
46782;BME280;32541;46.298;11.506;2023-07-29T04:53:34;89592.56;;;13.79;98.25
46782;BME280;32541;46.298;11.506;2023-07-29T04:56:02;89576.25;;;13.83;98.30
46782;BME280;32541;46.298;11.506;2023-07-29T04:58:27;89572.13;;;13.84;97.80
46782;BME280;32541;46.298;11.506;2023-07-29T05:00:55;89569.63;;;13.88;96.99
46782;BME280;32541;46.298;11.506;2023-07-29T05:03:20;89569.63;;;13.88;97.29
46782;BME280;32541;46.298;11.506;2023-07-29T05:05:45;89561.22;;;13.74;97.91
46782;BME280;32541;46.298;11.506;2023-07-29T05:08:11;89565.75;;;13.70;98.29
46782;BME280;32541;46.298;11.506;2023-07-29T05:10:36;89569.97;;;13.71;98.55
46782;BME280;32541;46.298;11.506;2023-07-29T05:13:01;89570.56;;;13.81;98.04
46782;BME280;32541;46.298;11.506;2023-07-29T05:15:27;89577.44;;;13.80;98.29
46782;BME280;32541;46.298;11.506;2023-07-29T05:17:52;89583.06;;;13.82;98.72
46782;BME280;32541;46.298;11.506;2023-07-29T05:20:18;89578.03;;;13.78;99.05
46782;BME280;32541;46.298;11.506;2023-07-29T05:22:43;89575.25;;;13.78;99.01
46782;BME280;32541;46.298;11.506;2023-07-29T05:25:08;89571.19;;;13.91;98.14
46782;BME280;32541;46.298;11.506;2023-07-29T05:27:34;89574.78;;;13.93;97.87
46782;BME280;32541;46.298;11.506;2023-07-29T05:29:59;89576.59;;;13.89;98.12
46782;BME280;32541;46.298;11.506;2023-07-29T05:32:25;89579.59;;;13.93;98.13
46782;BME280;32541;46.298;11.506;2023-07-29T05:34:50;89583.81;;;13.94;97.89
46782;BME280;32541;46.298;11.506;2023-07-29T05:37:16;89583.19;;;13.96;97.63
46782;BME280;32541;46.298;11.506;2023-07-29T05:39:41;89586.81;;;14.10;96.67
46782;BME280;32541;46.298;11.506;2023-07-29T05:42:07;89581.78;;;14.06;96.08
46782;BME280;32541;46.298;11.506;2023-07-29T05:44:33;89592.22;;;13.96;96.35
46782;BME280;32541;46.298;11.506;2023-07-29T05:46:58;89583.78;;;13.71;97.29
46782;BME280;32541;46.298;11.506;2023-07-29T05:49:24;89583.78;;;13.71;97.92
46782;BME280;32541;46.298;11.506;2023-07-29T05:51:49;89577.91;;;13.65;98.00
46782;BME280;32541;46.298;11.506;2023-07-29T05:54:18;89591.97;;;13.69;98.42
46782;BME280;32541;46.298;11.506;2023-07-29T05:56:43;89589.22;;;13.69;99.26
46782;BME280;32541;46.298;11.506;2023-07-29T05:59:09;89589.53;;;13.75;98.91
46782;BME280;32541;46.298;11.506;2023-07-29T06:01:34;89584.53;;;13.71;99.01
46782;BME280;32541;46.298;11.506;2023-07-29T06:04:00;89586.19;;;13.76;99.44
46782;BME280;32541;46.298;11.506;2023-07-29T06:06:25;89595.81;;;13.75;99.52
46782;BME280;32541;46.298;11.506;2023-07-29T06:08:51;89586.94;;;13.77;99.35
46782;BME280;32541;46.298;11.506;2023-07-29T06:11:16;89589.22;;;13.92;98.57
46782;BME280;32541;46.298;11.506;2023-07-29T06:13:41;89582.50;;;13.95;98.16
46782;BME280;32541;46.298;11.506;2023-07-29T06:16:07;89581.88;;;13.97;98.10
46782;BME280;32541;46.298;11.506;2023-07-29T06:18:32;89586.69;;;13.84;98.38
46782;BME280;32541;46.298;11.506;2023-07-29T06:20:58;89586.69;;;13.96;98.40
46782;BME280;32541;46.298;11.506;2023-07-29T06:23:23;89597.63;;;13.94;97.81
46782;BME280;32541;46.298;11.506;2023-07-29T06:25:48;89601.34;;;13.99;97.68
46782;BME280;32541;46.298;11.506;2023-07-29T06:28:14;89601.34;;;13.87;99.04
46782;BME280;32541;46.298;11.506;2023-07-29T06:30:39;89605.91;;;13.94;99.33
46782;BME280;32541;46.298;11.506;2023-07-29T06:33:05;89610.50;;;14.01;99.39
46782;BME280;32541;46.298;11.506;2023-07-29T06:35:30;89605.34;;;14.07;99.60
46782;BME280;32541;46.298;11.506;2023-07-29T06:37:55;89601.97;;;14.20;99.43
46782;BME280;32541;46.298;11.506;2023-07-29T06:40:21;89598.97;;;14.39;99.67
46782;BME280;32541;46.298;11.506;2023-07-29T06:42:46;89608.91;;;14.68;98.50
46782;BME280;32541;46.298;11.506;2023-07-29T06:45:11;89604.19;;;14.82;97.89
46782;BME280;32541;46.298;11.506;2023-07-29T06:47:37;89594.03;;;14.98;96.65
46782;BME280;32541;46.298;11.506;2023-07-29T06:50:03;89603.75;;;15.11;95.42
46782;BME280;32541;46.298;11.506;2023-07-29T06:52:28;89597.06;;;15.27;94.36
46782;BME280;32541;46.298;11.506;2023-07-29T06:54:54;89596.56;;;15.56;97.92
46782;BME280;32541;46.298;11.506;2023-07-29T06:57:19;89602.84;;;15.82;96.27
46782;BME280;32541;46.298;11.506;2023-07-29T06:59:45;89590.50;;;16.24;96.22
46782;BME280;32541;46.298;11.506;2023-07-29T07:02:10;89588.53;;;16.40;91.56
46782;BME280;32541;46.298;11.506;2023-07-29T07:04:35;89587.22;;;16.54;89.45
46782;BME280;32541;46.298;11.506;2023-07-29T07:07:01;89590.00;;;16.82;89.65
46782;BME280;32541;46.298;11.506;2023-07-29T07:09:26;89579.94;;;16.75;84.61
46782;BME280;32541;46.298;11.506;2023-07-29T07:11:52;89584.56;;;16.56;88.83
46782;BME280;32541;46.298;11.506;2023-07-29T07:14:17;89575.63;;;16.72;84.77
46782;BME280;32541;46.298;11.506;2023-07-29T07:16:43;89571.59;;;16.88;83.82
46782;BME280;32541;46.298;11.506;2023-07-29T07:19:08;89572.03;;;17.12;83.66
46782;BME280;32541;46.298;11.506;2023-07-29T07:21:33;89576.81;;;17.39;84.12
46782;BME280;32541;46.298;11.506;2023-07-29T07:23:59;89569.97;;;17.55;82.53
46782;BME280;32541;46.298;11.506;2023-07-29T07:26:25;89571.09;;;17.80;82.42
46782;BME280;32541;46.298;11.506;2023-07-29T07:28:50;89561.81;;;18.20;82.29
46782;BME280;32541;46.298;11.506;2023-07-29T07:31:16;89559.19;;;18.40;81.35
46782;BME280;32541;46.298;11.506;2023-07-29T07:33:42;89553.63;;;18.40;78.83
46782;BME280;32541;46.298;11.506;2023-07-29T07:36:07;89559.31;;;18.26;78.63
46782;BME280;32541;46.298;11.506;2023-07-29T07:38:32;89553.97;;;18.48;79.95
46782;BME280;32541;46.298;11.506;2023-07-29T07:40:58;89552.44;;;18.45;75.18
46782;BME280;32541;46.298;11.506;2023-07-29T07:43:24;89544.31;;;18.49;73.55
46782;BME280;32541;46.298;11.506;2023-07-29T07:45:49;89537.91;;;18.62;75.69
46782;BME280;32541;46.298;11.506;2023-07-29T07:48:15;89526.22;;;18.99;71.65
46782;BME280;32541;46.298;11.506;2023-07-29T07:50:42;89531.78;;;18.99;71.45
46782;BME280;32541;46.298;11.506;2023-07-29T07:53:07;89526.97;;;18.83;74.90
46782;BME280;32541;46.298;11.506;2023-07-29T07:55:33;89522.00;;;18.64;71.28
46782;BME280;32541;46.298;11.506;2023-07-29T07:57:58;89527.16;;;18.88;72.01
46782;BME280;32541;46.298;11.506;2023-07-29T08:00:23;89513.66;;;18.64;71.22
46782;BME280;32541;46.298;11.506;2023-07-29T08:02:49;89515.53;;;18.44;74.80
46782;BME280;32541;46.298;11.506;2023-07-29T08:05:14;89520.75;;;18.67;73.70
46782;BME280;32541;46.298;11.506;2023-07-29T08:07:58;89521.88;;;19.11;72.54
46782;BME280;32541;46.298;11.506;2023-07-29T08:10:24;89527.50;;;19.47;73.36
46782;BME280;32541;46.298;11.506;2023-07-29T08:12:49;89531.94;;;19.89;73.04
46782;BME280;32541;46.298;11.506;2023-07-29T08:15:14;89544.72;;;20.14;70.48
46782;BME280;32541;46.298;11.506;2023-07-29T08:17:40;89544.34;;;20.41;65.43
46782;BME280;32541;46.298;11.506;2023-07-29T08:20:06;89544.22;;;20.37;63.77
46782;BME280;32541;46.298;11.506;2023-07-29T08:22:31;89542.28;;;20.41;66.80
46782;BME280;32541;46.298;11.506;2023-07-29T08:24:57;89549.25;;;20.60;63.95
46782;BME280;32541;46.298;11.506;2023-07-29T08:27:22;89543.22;;;20.68;64.84
46782;BME280;32541;46.298;11.506;2023-07-29T08:29:48;89545.06;;;21.00;65.37
46782;BME280;32541;46.298;11.506;2023-07-29T08:32:13;89542.66;;;20.71;64.33
46782;BME280;32541;46.298;11.506;2023-07-29T08:34:38;89544.84;;;20.35;65.03
46782;BME280;32541;46.298;11.506;2023-07-29T08:37:04;89532.25;;;20.17;64.25
46782;BME280;32541;46.298;11.506;2023-07-29T08:39:29;89543.44;;;20.17;63.51
46782;BME280;32541;46.298;11.506;2023-07-29T08:42:01;89536.03;;;20.43;63.94
46782;BME280;32541;46.298;11.506;2023-07-29T08:44:52;89543.66;;;20.60;64.16
46782;BME280;32541;46.298;11.506;2023-07-29T08:47:19;89551.03;;;20.52;63.21
46782;BME280;32541;46.298;11.506;2023-07-29T08:49:45;89534.91;;;20.50;63.13
46782;BME280;32541;46.298;11.506;2023-07-29T08:52:12;89537.13;;;20.34;62.61
46782;BME280;32541;46.298;11.506;2023-07-29T08:54:37;89528.81;;;20.36;60.66
46782;BME280;32541;46.298;11.506;2023-07-29T08:57:03;89539.06;;;20.49;60.43
46782;BME280;32541;46.298;11.506;2023-07-29T08:59:29;89526.97;;;20.62;61.52
46782;BME280;32541;46.298;11.506;2023-07-29T09:01:55;89520.72;;;20.83;62.40
46782;BME280;32541;46.298;11.506;2023-07-29T09:04:22;89511.56;;;20.61;62.71
46782;BME280;32541;46.298;11.506;2023-07-29T09:06:50;89506.38;;;20.73;62.10
46782;BME280;32541;46.298;11.506;2023-07-29T09:09:15;89506.66;;;21.01;63.59
46782;BME280;32541;46.298;11.506;2023-07-29T09:11:41;89509.00;;;21.09;61.25
46782;BME280;32541;46.298;11.506;2023-07-29T09:14:06;89504.69;;;21.05;62.94
46782;BME280;32541;46.298;11.506;2023-07-29T09:16:32;89512.59;;;20.91;62.12
46782;BME280;32541;46.298;11.506;2023-07-29T09:19:01;89517.09;;;21.20;62.76
46782;BME280;32541;46.298;11.506;2023-07-29T09:21:28;89522.97;;;21.50;61.91
46782;BME280;32541;46.298;11.506;2023-07-29T09:23:54;89531.50;;;21.54;62.88
46782;BME280;32541;46.298;11.506;2023-07-29T09:26:27;89526.34;;;21.90;60.20
46782;BME280;32541;46.298;11.506;2023-07-29T09:28:57;89513.13;;;21.92;63.28
46782;BME280;32541;46.298;11.506;2023-07-29T09:31:25;89518.34;;;22.26;63.44
46782;BME280;32541;46.298;11.506;2023-07-29T09:34:04;89510.97;;;22.62;61.84
46782;BME280;32541;46.298;11.506;2023-07-29T09:36:32;89503.78;;;22.81;61.70
46782;BME280;32541;46.298;11.506;2023-07-29T09:38:58;89497.97;;;22.98;60.00
46782;BME280;32541;46.298;11.506;2023-07-29T09:41:28;89495.59;;;23.14;58.92
46782;BME280;32541;46.298;11.506;2023-07-29T09:43:57;89488.34;;;23.33;58.62
46782;BME280;32541;46.298;11.506;2023-07-29T09:46:24;89497.59;;;23.65;60.25
46782;BME280;32541;46.298;11.506;2023-07-29T09:48:54;89487.06;;;23.96;57.55
46782;BME280;32541;46.298;11.506;2023-07-29T09:51:22;89486.44;;;23.40;56.94
46782;BME280;32541;46.298;11.506;2023-07-29T09:53:50;89489.63;;;23.56;58.77
46782;BME280;32541;46.298;11.506;2023-07-29T09:56:16;89483.56;;;23.10;60.08
46782;BME280;32541;46.298;11.506;2023-07-29T09:58:43;89492.28;;;23.50;60.30
46782;BME280;32541;46.298;11.506;2023-07-29T10:01:11;89488.09;;;23.23;58.11
46782;BME280;32541;46.298;11.506;2023-07-29T10:03:37;89483.88;;;23.50;57.89
46782;BME280;32541;46.298;11.506;2023-07-29T10:06:06;89476.81;;;23.78;59.40
46782;BME280;32541;46.298;11.506;2023-07-29T10:08:33;89474.13;;;23.53;56.90
46782;BME280;32541;46.298;11.506;2023-07-29T10:11:05;89483.97;;;23.54;57.01
46782;BME280;32541;46.298;11.506;2023-07-29T10:13:33;89478.34;;;22.98;57.38
46782;BME280;32541;46.298;11.506;2023-07-29T10:15:59;89466.50;;;22.74;58.15
46782;BME280;32541;46.298;11.506;2023-07-29T10:18:27;89461.88;;;23.12;59.58
46782;BME280;32541;46.298;11.506;2023-07-29T10:20:54;89477.31;;;23.69;61.32
46782;BME280;32541;46.298;11.506;2023-07-29T10:23:22;89465.06;;;24.16;58.35
46782;BME280;32541;46.298;11.506;2023-07-29T10:26:06;89466.91;;;24.05;55.34
46782;BME280;32541;46.298;11.506;2023-07-29T10:28:40;89470.13;;;23.92;55.96
46782;BME280;32541;46.298;11.506;2023-07-29T10:31:06;89486.59;;;23.20;58.31
46782;BME280;32541;46.298;11.506;2023-07-29T10:33:33;89471.78;;;23.73;57.83
46782;BME280;32541;46.298;11.506;2023-07-29T10:35:59;89483.53;;;23.38;57.67
46782;BME280;32541;46.298;11.506;2023-07-29T10:38:25;89478.28;;;23.52;56.67
46782;BME280;32541;46.298;11.506;2023-07-29T10:40:57;89467.44;;;23.66;56.78
46782;BME280;32541;46.298;11.506;2023-07-29T10:45:55;89467.22;;;23.30;58.62
46782;BME280;32541;46.298;11.506;2023-07-29T10:51:24;89452.78;;;23.14;60.66
46782;BME280;32541;46.298;11.506;2023-07-29T10:54:02;89456.19;;;23.66;58.89
46782;BME280;32541;46.298;11.506;2023-07-29T10:56:32;89461.19;;;23.99;58.66
46782;BME280;32541;46.298;11.506;2023-07-29T10:59:02;89456.75;;;24.20;56.11
46782;BME280;32541;46.298;11.506;2023-07-29T11:01:57;89449.84;;;23.95;55.12
46782;BME280;32541;46.298;11.506;2023-07-29T11:04:24;89447.84;;;23.70;57.00
46782;BME280;32541;46.298;11.506;2023-07-29T11:15:04;89458.16;;;23.91;57.04
46782;BME280;32541;46.298;11.506;2023-07-29T11:17:32;89444.06;;;24.19;57.60
46782;BME280;32541;46.298;11.506;2023-07-29T11:20:03;89443.00;;;24.70;57.84
46782;BME280;32541;46.298;11.506;2023-07-29T11:22:29;89445.75;;;24.68;56.13
46782;BME280;32541;46.298;11.506;2023-07-29T11:24:55;89438.44;;;24.88;56.34
46782;BME280;32541;46.298;11.506;2023-07-29T11:27:20;89434.63;;;24.74;57.02
46782;BME280;32541;46.298;11.506;2023-07-29T11:29:46;89439.84;;;24.54;56.48
46782;BME280;32541;46.298;11.506;2023-07-29T11:32:12;89433.41;;;24.13;57.80
46782;BME280;32541;46.298;11.506;2023-07-29T11:34:37;89436.00;;;24.05;58.64
46782;BME280;32541;46.298;11.506;2023-07-29T11:37:05;89429.16;;;23.51;59.49
46782;BME280;32541;46.298;11.506;2023-07-29T11:39:32;89423.84;;;23.63;58.98
46782;BME280;32541;46.298;11.506;2023-07-29T11:41:58;89413.03;;;23.81;59.78
46782;BME280;32541;46.298;11.506;2023-07-29T11:44:24;89409.31;;;24.04;59.14
46782;BME280;32541;46.298;11.506;2023-07-29T11:46:50;89410.34;;;24.53;60.69
46782;BME280;32541;46.298;11.506;2023-07-29T11:49:16;89406.59;;;24.42;57.18
46782;BME280;32541;46.298;11.506;2023-07-29T11:51:41;89403.56;;;23.98;58.50
46782;BME280;32541;46.298;11.506;2023-07-29T11:54:08;89407.53;;;23.87;59.49
46782;BME280;32541;46.298;11.506;2023-07-29T11:56:34;89402.09;;;23.63;59.77
46782;BME280;32541;46.298;11.506;2023-07-29T11:59:01;89385.88;;;23.60;60.44
46782;BME280;32541;46.298;11.506;2023-07-29T12:01:28;89390.09;;;23.93;60.14
46782;BME280;32541;46.298;11.506;2023-07-29T12:03:55;89390.22;;;23.67;60.85
46782;BME280;32541;46.298;11.506;2023-07-29T12:06:21;89382.81;;;23.50;60.98
46782;BME280;32541;46.298;11.506;2023-07-29T12:08:47;89386.50;;;23.56;59.64
46782;BME280;32541;46.298;11.506;2023-07-29T12:11:13;89391.09;;;23.44;60.47
46782;BME280;32541;46.298;11.506;2023-07-29T12:13:41;89375.63;;;23.72;60.10
46782;BME280;32541;46.298;11.506;2023-07-29T12:16:07;89369.09;;;23.96;60.86
46782;BME280;32541;46.298;11.506;2023-07-29T12:18:32;89374.66;;;24.25;60.52
46782;BME280;32541;46.298;11.506;2023-07-29T12:20:58;89373.94;;;24.25;59.48
46782;BME280;32541;46.298;11.506;2023-07-29T12:23:24;89380.53;;;24.75;58.03
46782;BME280;32541;46.298;11.506;2023-07-29T12:25:56;89382.66;;;24.77;57.17
46782;BME280;32541;46.298;11.506;2023-07-29T12:28:22;89376.34;;;25.16;57.79
46782;BME280;32541;46.298;11.506;2023-07-29T12:30:47;89372.06;;;25.13;56.04
46782;BME280;32541;46.298;11.506;2023-07-29T12:33:29;89374.00;;;25.03;56.92
46782;BME280;32541;46.298;11.506;2023-07-29T12:35:55;89369.88;;;25.52;58.54
46782;BME280;32541;46.298;11.506;2023-07-29T12:38:26;89368.72;;;25.23;55.67
46782;BME280;32541;46.298;11.506;2023-07-29T12:40:51;89369.16;;;25.07;57.48
46782;BME280;32541;46.298;11.506;2023-07-29T12:43:16;89372.69;;;25.50;54.96
46782;BME280;32541;46.298;11.506;2023-07-29T12:45:42;89371.81;;;25.41;54.20
46782;BME280;32541;46.298;11.506;2023-07-29T12:48:09;89363.09;;;25.69;56.90
46782;BME280;32541;46.298;11.506;2023-07-29T12:50:34;89355.59;;;25.83;52.85
46782;BME280;32541;46.298;11.506;2023-07-29T12:53:00;89368.47;;;25.51;54.89
46782;BME280;32541;46.298;11.506;2023-07-29T12:55:25;89356.72;;;25.20;54.04
46782;BME280;32541;46.298;11.506;2023-07-29T12:57:51;89352.63;;;25.29;55.78
46782;BME280;32541;46.298;11.506;2023-07-29T13:00:16;89354.53;;;25.61;53.53
46782;BME280;32541;46.298;11.506;2023-07-29T13:02:42;89350.06;;;25.02;53.69
46782;BME280;32541;46.298;11.506;2023-07-29T13:05:10;89333.47;;;24.78;55.23